Time;durP1;ratioP1;P1;durP2;ratioP2;P2;SDS_P1;SDS_P2;PMS_P1;PMS_P2;Temp;Humidity;BMP_temperature;BMP_pressure;BME280_temperature;BME280_humidity;BME280_pressure;Samples;Min_cycle;Max_cycle;Signal;HPM_P1;HPM_P2
2022/09/05 00:02:07;;;;;;;6.30;4.57;;;;;;;-145.18;100.00;46656.50;5073622;28;20035;-70
2022/09/05 00:05:01;;;;;;;5.63;4.80;;;;;;;-145.18;100.00;46652.59;5073434;28;20465;-70
2022/09/05 00:07:33;;;;;;;10.83;5.20;;;;;;;-145.18;100.00;46654.53;5073342;28;20074;-70
2022/09/05 00:10:26;;;;;;;10.90;5.33;;;;;;;-145.18;100.00;46650.63;5073154;28;20518;-70
2022/09/05 00:12:56;;;;;;;8.23;5.27;;;;;;;-145.18;100.00;46656.50;5072655;28;20610;-70
2022/09/05 00:15:38;;;;;;;9.50;5.53;;;;;;;-145.18;100.00;46658.44;5073523;28;20485;-70
2022/09/05 00:18:11;;;;;;;10.20;5.63;;;;;;;-145.18;100.00;46656.50;5072829;28;20059;-70
2022/09/05 00:20:45;;;;;;;10.90;5.77;;;;;;;-145.18;100.00;46656.50;5073133;28;20056;-70
2022/09/05 00:23:33;;;;;;;6.70;5.37;;;;;;;-145.18;100.00;46658.44;5073077;28;20040;-70
2022/09/05 00:26:12;;;;;;;14.17;6.87;;;;;;;-145.18;100.00;46660.41;5073163;28;20067;-70
2022/09/05 00:28:47;;;;;;;9.37;5.50;;;;;;;-145.18;100.00;46660.41;5072854;28;20056;-69
2022/09/05 00:31:34;;;;;;;7.75;6.10;;;;;;;-145.18;100.00;46658.44;5072556;28;20552;-69
2022/09/05 00:34:30;;;;;;;12.17;6.40;;;;;;;-145.18;100.00;46662.34;5072858;28;20025;-70
2022/09/05 00:36:55;;;;;;;12.10;5.90;;;;;;;-145.18;100.00;46658.44;5072507;28;20033;-70
2022/09/05 00:39:35;;;;;;;9.33;6.00;;;;;;;-145.18;100.00;46656.50;5072747;28;20040;-70
2022/09/05 00:42:08;;;;;;;13.20;6.57;;;;;;;-145.18;100.00;46660.41;5072291;28;20033;-70
2022/09/05 00:44:46;;;;;;;11.70;6.50;;;;;;;-145.18;100.00;46658.44;5072698;28;20159;-70
2022/09/05 00:47:41;;;;;;;10.07;6.63;;;;;;;-145.18;100.00;46668.22;5072359;28;20107;-69
2022/09/05 00:50:23;;;;;;;9.95;6.45;;;;;;;-145.18;100.00;46662.34;5072602;28;20032;-70
2022/09/05 00:52:56;;;;;;;8.93;6.37;;;;;;;-145.18;100.00;46656.50;5071974;28;20058;-70
2022/09/05 00:55:34;;;;;;;9.23;6.70;;;;;;;-145.18;100.00;46660.41;5072683;28;20440;-69
2022/09/05 00:58:29;;;;;;;10.40;6.70;;;;;;;-145.18;100.00;46646.72;5072123;28;20508;-70
2022/09/05 01:00:57;;;;;;;14.40;7.00;;;;;;;-145.18;100.00;46648.69;5052381;28;20052;-70
2022/09/05 01:03:31;;;;;;;13.07;6.63;;;;;;;-145.18;100.00;46654.53;5070959;28;20052;-69
2022/09/05 01:06:16;;;;;;;9.03;6.17;;;;;;;-145.18;100.00;46658.44;5072192;28;20047;-69
2022/09/05 01:08:59;;;;;;;7.35;6.45;;;;;;;-145.18;100.00;46652.59;5070436;28;20443;-70
2022/09/05 01:11:24;;;;;;;8.80;6.33;;;;;;;-145.18;100.00;46656.50;5071829;28;20064;-69
2022/09/05 01:13:53;;;;;;;11.00;6.47;;;;;;;-145.18;100.00;46650.63;5071396;28;20056;-69
2022/09/05 01:16:30;;;;;;;13.43;6.70;;;;;;;-145.18;100.00;46652.59;5071268;28;20036;-70
2022/09/05 01:18:55;;;;;;;12.93;6.60;;;;;;;-145.18;100.00;46648.69;5071789;28;20048;-69
2022/09/05 01:21:30;;;;;;;9.03;7.17;;;;;;;-145.18;100.00;46650.63;5057363;28;20033;-69
2022/09/05 01:24:15;;;;;;;10.83;7.20;;;;;;;-145.18;100.00;46650.63;5052022;28;20424;-69
2022/09/05 01:26:47;;;;;;;11.32;7.13;;;;;;;-145.18;100.00;46654.53;5050931;28;20044;-69
2022/09/05 01:29:44;;;;;;;7.97;6.83;;;;;;;-145.18;100.00;46646.72;5051849;28;20040;-69
2022/09/05 01:32:15;;;;;;;11.60;7.83;;;;;;;-145.18;100.00;46648.69;5051579;28;20512;-69
2022/09/05 01:35:24;;;;;;;8.03;6.43;;;;;;;-145.18;100.00;46648.69;5051789;28;20028;-69
2022/09/05 01:37:59;;;;;;;8.50;5.70;;;;;;;-145.18;100.00;46658.44;5051061;28;20415;-69
2022/09/05 01:40:33;;;;;;;8.77;6.33;;;;;;;-145.18;100.00;46656.50;5051717;28;20421;-69
2022/09/05 01:43:30;;;;;;;10.32;7.20;;;;;;;-145.18;100.00;46658.44;5051540;28;20035;-69
2022/09/05 01:46:02;;;;;;;14.82;7.93;;;;;;;-145.18;100.00;46650.63;5051390;28;20069;-69
2022/09/05 01:48:54;;;;;;;13.47;9.13;;;;;;;-145.18;100.00;46650.63;5051385;28;20370;-70
2022/09/05 01:51:49;;;;;;;13.40;8.83;;;;;;;-145.18;100.00;46656.50;5040815;28;20393;-69
2022/09/05 01:54:33;;;;;;;15.17;8.80;;;;;;;-145.18;100.00;46644.78;5052057;28;20036;-69
2022/09/05 01:57:37;;;;;;;14.50;8.87;;;;;;;-145.18;100.00;46644.78;5051211;28;20453;-70
2022/09/05 02:03:47;;;;;;;12.23;9.07;;;;;;;-145.18;100.00;46642.81;5080232;23;20470;-69
2022/09/05 02:06:26;;;;;;;12.90;8.63;;;;;;;-145.18;100.00;46681.88;4904774;29;20048;-70
2022/09/05 02:09:17;;;;;;;15.93;8.97;;;;;;;-145.18;100.00;46679.94;4913584;29;20036;-69
2022/09/05 02:11:53;;;;;;;15.80;9.87;;;;;;;-145.18;100.00;46681.88;4900077;29;20028;-69
2022/09/05 02:14:43;;;;;;;18.40;10.88;;;;;;;-145.18;100.00;46679.94;4914004;29;20032;-69
2022/09/05 02:17:15;;;;;;;19.80;9.13;;;;;;;-145.18;100.00;46681.88;4913530;29;20047;-69
2022/09/05 02:19:48;;;;;;;14.60;9.63;;;;;;;-145.18;100.00;46679.94;4914620;29;20068;-69
2022/09/05 02:22:21;;;;;;;17.33;9.97;;;;;;;-145.18;100.00;46644.78;4913460;29;20119;-69
2022/09/05 02:25:01;;;;;;;16.03;10.40;;;;;;;-145.18;100.00;46644.78;4914384;29;20536;-69
2022/09/05 02:27:39;;;;;;;16.20;11.13;;;;;;;-145.18;100.00;46677.97;4917568;29;20032;-69
2022/09/05 02:30:24;;;;;;;13.20;10.27;;;;;;;-145.18;100.00;46679.94;4917991;29;20392;-69
2022/09/05 02:33:04;;;;;;;17.07;11.13;;;;;;;-145.18;100.00;46679.94;4917418;29;20039;-69
2022/09/05 02:35:51;;;;;;;16.27;11.63;;;;;;;-145.18;100.00;46660.41;4917952;29;20115;-69
2022/09/05 02:38:22;;;;;;;21.30;11.40;;;;;;;-145.18;100.00;46679.94;4917365;29;20061;-69
2022/09/05 02:40:53;;;;;;;17.27;11.30;;;;;;;-145.18;100.00;46681.88;4917884;29;20075;-69
2022/09/05 02:43:48;;;;;;;18.23;11.47;;;;;;;-145.18;100.00;46660.41;4917269;29;20071;-69
2022/09/05 02:46:23;;;;;;;18.83;11.70;;;;;;;-145.18;100.00;46677.97;4917383;29;20028;-69
2022/09/05 02:48:56;;;;;;;16.52;12.38;;;;;;;-145.18;100.00;46679.94;4917239;29;20028;-69
2022/09/05 02:51:28;;;;;;;18.07;11.83;;;;;;;-145.18;100.00;46679.94;4917876;29;20067;-69
2022/09/05 02:54:02;;;;;;;18.83;12.17;;;;;;;-145.18;100.00;46660.41;4917264;29;20036;-69
2022/09/05 02:56:39;;;;;;;18.30;12.83;;;;;;;-145.18;100.00;46660.41;4917482;29;20039;-69
2022/09/05 02:59:37;;;;;;;18.33;12.27;;;;;;;-145.18;100.00;46660.41;4911599;29;20028;-69
2022/09/05 03:02:27;;;;;;;16.13;11.97;;;;;;;-145.18;100.00;46660.41;4915612;29;20044;-69
2022/09/05 03:05:12;;;;;;;15.80;12.37;;;;;;;-145.18;100.00;46660.41;4917703;29;20127;-69
2022/09/05 03:07:59;;;;;;;26.42;14.07;;;;;;;-145.18;100.00;46677.97;4917160;29;20060;-69
2022/09/05 03:10:53;;;;;;;16.57;12.87;;;;;;;-145.18;100.00;46660.41;4917382;29;20072;-69
2022/09/05 03:13:43;;;;;;;19.17;12.97;;;;;;;-145.18;100.00;46660.41;4916889;29;20694;-69
2022/09/05 03:16:56;;;;;;;19.70;12.97;;;;;;;-145.18;100.00;46660.41;4917250;29;20485;-69
2022/09/05 03:19:59;;;;;;;17.53;12.83;;;;;;;-145.18;100.00;46679.94;4907995;29;20040;-68
2022/09/05 03:22:54;;;;;;;18.43;13.93;;;;;;;-145.18;100.00;46677.97;4917565;29;20036;-69
2022/09/05 03:25:32;;;;;;;18.63;12.73;;;;;;;-145.18;100.00;46660.41;4917960;29;20047;-69
2022/09/05 03:28:34;;;;;;;21.33;14.03;;;;;;;-145.18;100.00;46660.41;4917481;29;20873;-69
2022/09/05 03:31:12;;;;;;;18.20;13.33;;;;;;;-145.18;100.00;46677.97;4917331;29;20040;-69
2022/09/05 03:33:59;;;;;;;25.50;13.63;;;;;;;-145.18;100.00;46677.97;4915872;29;20043;-69
2022/09/05 03:36:38;;;;;;;18.93;13.17;;;;;;;-145.18;100.00;46660.41;4917878;29;20512;-69
2022/09/05 03:39:41;;;;;;;19.77;12.67;;;;;;;-145.18;100.00;46660.41;4916286;29;20508;-69
2022/09/05 03:42:25;;;;;;;18.80;12.53;;;;;;;-145.18;100.00;46642.81;4917363;29;20051;-69
2022/09/05 03:45:27;;;;;;;18.90;13.23;;;;;;;-145.18;100.00;46660.41;4917585;29;20035;-69
2022/09/05 03:48:14;;;;;;;19.70;12.33;;;;;;;-145.18;100.00;46677.97;4917046;29;20071;-69
2022/09/05 03:50:49;;;;;;;18.60;12.50;;;;;;;-145.18;100.00;46679.94;4917284;29;20393;-69
2022/09/05 03:53:51;;;;;;;22.27;13.80;;;;;;;-145.18;100.00;46660.41;4916779;29;20035;-69
2022/09/05 03:56:41;;;;;;;17.83;12.17;;;;;;;-145.18;100.00;46677.97;4916974;29;20043;-69
2022/09/05 03:59:34;;;;;;;18.87;13.03;;;;;;;-145.18;100.00;46677.97;4916864;29;20193;-69
2022/09/05 04:02:03;;;;;;;22.07;13.20;;;;;;;-145.18;100.00;46677.97;4916604;29;20032;-69
2022/09/05 04:04:41;;;;;;;21.43;13.07;;;;;;;-145.18;100.00;46679.94;4917019;29;20400;-69
2022/09/05 04:07:30;;;;;;;21.70;13.27;;;;;;;-145.18;100.00;46679.94;4916697;29;20075;-69
2022/09/05 04:10:03;;;;;;;15.20;12.57;;;;;;;-145.18;100.00;46679.94;4917535;29;20139;-69
2022/09/05 04:12:35;;;;;;;20.07;13.43;;;;;;;-145.18;100.00;46679.94;4922710;29;20031;-69
2022/09/05 04:15:06;;;;;;;22.97;12.83;;;;;;;-145.18;100.00;46679.94;4921906;29;20036;-69
2022/09/05 04:17:34;;;;;;;20.40;13.43;;;;;;;-145.18;100.00;46677.97;4916256;29;20516;-69
2022/09/05 04:20:22;;;;;;;18.57;12.93;;;;;;;-145.18;100.00;46642.81;4916699;29;20036;-69
2022/09/05 04:23:12;;;;;;;21.10;13.37;;;;;;;-145.18;100.00;46679.94;4905922;29;20449;-69
2022/09/05 04:25:52;;;;;;;17.80;11.90;;;;;;;-145.18;100.00;46679.94;4916628;29;20040;-68
2022/09/05 04:28:34;;;;;;;22.27;14.03;;;;;;;-145.18;100.00;46679.94;4916132;29;20064;-69
2022/09/05 04:31:37;;;;;;;21.47;13.20;;;;;;;-145.18;100.00;46677.97;4916731;29;20392;-69
2022/09/05 04:34:21;;;;;;;15.73;12.23;;;;;;;-145.18;100.00;46660.41;4916242;29;20072;-69
2022/09/05 04:36:59;;;;;;;20.17;12.93;;;;;;;-145.18;100.00;46660.41;4916639;29;20040;-69
2022/09/05 04:39:26;;;;;;;17.30;12.80;;;;;;;-145.18;100.00;46660.41;4916010;29;20100;-69
2022/09/05 04:42:03;;;;;;;20.13;12.87;;;;;;;-145.18;100.00;46677.97;4916398;29;20070;-69
2022/09/05 04:44:34;;;;;;;19.17;12.53;;;;;;;-145.18;100.00;46660.41;4916134;29;20028;-69
2022/09/05 04:47:08;;;;;;;18.53;12.50;;;;;;;-145.18;100.00;46660.41;4916297;29;20489;-69
2022/09/05 04:49:39;;;;;;;21.33;12.23;;;;;;;-145.18;100.00;46660.41;4914734;29;20064;-69
2022/09/05 04:52:32;;;;;;;24.17;12.53;;;;;;;-145.18;100.00;46660.41;4916414;29;20115;-69
2022/09/05 04:55:10;;;;;;;25.37;12.87;;;;;;;-145.18;100.00;46660.41;4916252;29;20420;-69
2022/09/05 04:57:48;;;;;;;22.57;12.67;;;;;;;-145.18;100.00;46660.41;4915631;29;20036;-69
2022/09/05 05:00:24;;;;;;;20.30;12.67;;;;;;;-145.18;100.00;46660.41;4916063;29;20028;-69
2022/09/05 05:02:58;;;;;;;19.00;12.97;;;;;;;-145.18;100.00;46660.41;4911890;29;20143;-68
2022/09/05 05:05:28;;;;;;;18.63;13.00;;;;;;;-145.18;100.00;46660.41;4903673;29;20039;-69
2022/09/05 05:08:16;;;;;;;16.93;12.50;;;;;;;-145.18;100.00;46660.41;4908208;29;20056;-69
2022/09/05 05:11:21;;;;;;;27.13;12.97;;;;;;;-145.18;100.00;46660.41;4907170;29;20042;-69
2022/09/05 05:13:50;;;;;;;20.47;12.83;;;;;;;-145.18;100.00;46660.41;4901575;29;20071;-69
2022/09/05 05:16:28;;;;;;;19.77;12.67;;;;;;;-145.18;100.00;46660.41;4915727;29;20389;-69
2022/09/05 05:18:59;;;;;;;17.43;12.70;;;;;;;-145.18;100.00;46660.41;4915624;29;20059;-69
2022/09/05 05:21:28;;;;;;;19.93;12.40;;;;;;;-145.18;100.00;46660.41;4915577;29;20040;-69
2022/09/05 05:23:57;;;;;;;17.20;12.03;;;;;;;-145.18;100.00;46660.41;4915380;29;20131;-69
2022/09/05 05:26:35;;;;;;;17.70;12.30;;;;;;;-145.18;100.00;46660.41;4915389;29;20032;-69
2022/09/05 05:29:15;;;;;;;17.87;12.30;;;;;;;-145.18;100.00;46660.41;4915189;29;20536;-69
2022/09/05 05:31:50;;;;;;;15.20;12.13;;;;;;;-145.18;100.00;46636.94;4915692;29;20489;-69
2022/09/05 05:34:25;;;;;;;16.67;11.48;;;;;;;-145.18;100.00;46636.94;4914986;29;20028;-69
2022/09/05 05:37:02;;;;;;;19.90;11.98;;;;;;;-145.18;100.00;46635.00;4915472;29;20032;-69
2022/09/05 05:39:29;;;;;;;17.93;12.27;;;;;;;-145.18;100.00;46635.00;4914805;29;20636;-69
2022/09/05 05:41:56;;;;;;;19.23;11.77;;;;;;;-145.18;100.00;46638.91;4915667;29;20024;-69
2022/09/05 05:44:34;;;;;;;17.77;12.17;;;;;;;-145.18;100.00;46638.91;4914872;29;20116;-69
2022/09/05 05:47:04;;;;;;;18.13;11.60;;;;;;;-145.18;100.00;46638.91;4915115;29;20043;-69
2022/09/05 05:49:35;;;;;;;16.03;12.03;;;;;;;-145.18;100.00;46638.91;4914984;29;20154;-69
2022/09/05 05:52:36;;;;;;;15.87;12.33;;;;;;;-145.18;100.00;46636.94;4914091;29;20032;-69
2022/09/05 05:55:36;;;;;;;18.27;12.77;;;;;;;-145.18;100.00;46635.00;4915168;29;20035;-69
2022/09/05 05:58:07;;;;;;;17.43;12.90;;;;;;;-145.18;100.00;46635.00;4914824;29;20024;-69
2022/09/05 06:00:45;;;;;;;17.73;12.00;;;;;;;-145.18;100.00;46636.94;4915019;29;20111;-69
2022/09/05 06:03:32;;;;;;;19.30;11.83;;;;;;;-145.18;100.00;46636.94;4914456;29;20071;-69
2022/09/05 06:06:13;;;;;;;17.80;11.80;;;;;;;-145.18;100.00;46633.06;4915042;29;20500;-69
2022/09/05 06:09:25;;;;;;;18.43;10.97;;;;;;;-145.18;100.00;46631.09;4915180;29;20100;-68
2022/09/05 06:12:05;;;;;;;20.10;11.33;;;;;;;-145.18;100.00;46635.00;4915042;29;20501;-69
2022/09/05 06:14:55;;;;;;;19.20;12.63;;;;;;;-145.18;100.00;46638.91;4914953;29;20028;-69
2022/09/05 06:17:40;;;;;;;16.63;11.90;;;;;;;-145.18;100.00;46635.00;4914770;29;20414;-69
2022/09/05 06:20:27;;;;;;;19.40;12.18;;;;;;;-145.18;100.00;46640.88;4915089;29;20031;-68
2022/09/05 06:23:12;;;;;;;15.40;11.80;;;;;;;-145.18;100.00;46642.81;4914721;29;20063;-69
2022/09/05 06:26:12;;;;;;;20.58;12.35;;;;;;;-145.18;100.00;46648.69;4894831;29;20036;-69
2022/09/05 06:28:52;;;;;;;19.00;13.40;;;;;;;-145.18;100.00;46644.78;4914507;29;20055;-69
2022/09/05 06:31:41;;;;;;;20.30;13.00;;;;;;;-145.18;100.00;46644.78;4914786;29;20040;-69
2022/09/05 06:34:14;;;;;;;24.40;13.63;;;;;;;-145.18;100.00;46644.78;4914620;29;20039;-69
2022/09/05 06:36:48;;;;;;;25.47;13.43;;;;;;;-145.18;100.00;46644.78;4915049;29;20024;-69
2022/09/05 06:40:05;;;;;;;19.83;13.43;;;;;;;-145.18;100.00;46650.63;4914399;29;20108;-69
2022/09/05 06:42:36;;;;;;;21.25;12.75;;;;;;;-145.18;100.00;46648.69;4914681;29;20028;-69
2022/09/05 06:45:37;;;;;;;22.00;13.37;;;;;;;-145.18;100.00;46648.69;4914871;29;20115;-69
2022/09/05 06:48:18;;;;;;;21.20;13.33;;;;;;;-145.18;100.00;46642.81;4914108;29;20040;-69
2022/09/05 06:51:13;;;;;;;19.13;12.83;;;;;;;-145.18;100.00;46642.81;4914946;29;20028;-69
2022/09/05 06:53:56;;;;;;;15.70;11.77;;;;;;;-145.18;100.00;46636.94;4913638;29;20053;-69
2022/09/05 06:56:33;;;;;;;17.83;12.93;;;;;;;-145.18;100.00;46631.09;4914611;29;20065;-69
2022/09/05 06:59:33;;;;;;;19.47;12.73;;;;;;;-145.18;100.00;46599.84;4914414;29;20520;-69
2022/09/05 07:02:14;;;;;;;20.73;13.30;;;;;;;-145.18;100.00;46568.59;4914611;29;20548;-69
2022/09/05 07:04:51;;;;;;;26.67;13.00;;;;;;;-145.18;100.00;46543.19;4914601;29;20067;-69
2022/09/05 07:07:25;;;;;;;20.97;12.63;;;;;;;-145.18;100.00;46519.75;4914262;29;20028;-69
2022/09/05 07:09:53;;;;;;;18.83;11.43;;;;;;;-145.18;100.00;46523.66;4914324;29;20040;-69
2022/09/05 07:12:29;;;;;;;16.83;10.60;;;;;;;-145.18;100.00;46523.66;4914778;29;20544;-69
2022/09/05 07:15:07;;;;;;;16.30;10.60;;;;;;;-145.18;100.00;46521.72;4918017;29;20396;-69
2022/09/05 07:17:58;;;;;;;16.40;9.83;;;;;;;-145.18;100.00;46531.47;4917970;29;20032;-69
2022/09/05 07:20:36;;;;;;;12.00;8.03;;;;;;;-145.18;100.00;46519.75;4918125;29;20028;-69
2022/09/05 07:23:07;;;;;;;14.80;8.40;;;;;;;-145.18;100.00;46523.66;4917936;29;20379;-70
2022/09/05 07:25:33;;;;;;;13.53;7.20;;;;;;;-145.18;100.00;46521.72;4917898;29;20032;-69
2022/09/05 07:28:11;;;;;;;13.20;7.57;;;;;;;-145.18;100.00;46525.63;4917916;29;20055;-69
2022/09/05 07:30:40;;;;;;;30.80;9.23;;;;;;;-145.18;100.00;46537.34;4917864;29;20040;-69
2022/09/05 07:33:07;;;;;;;9.70;6.70;;;;;;;-145.18;100.00;46543.19;4917705;29;20032;-70
2022/09/05 07:35:36;;;;;;;9.20;6.00;;;;;;;-145.18;100.00;46549.06;4916304;29;20116;-69
2022/09/05 07:38:08;;;;;;;16.83;6.07;;;;;;;-145.18;100.00;46531.47;4917752;29;20123;-70
2022/09/05 07:40:39;;;;;;;13.27;6.07;;;;;;;-145.18;100.00;46574.44;4918031;29;20086;-69
2022/09/05 07:43:21;;;;;;;8.73;5.50;;;;;;;-145.18;100.00;46582.25;4917744;29;20052;-70
2022/09/05 07:46:13;;;;;;;12.07;5.87;;;;;;;-145.18;100.00;46871.38;4917811;29;20111;-70
2022/09/05 07:48:47;;;;;;;9.80;5.47;;;;;;;-145.18;100.00;46967.09;4917132;29;20036;-69
2022/09/05 07:51:23;;;;;;;9.03;5.10;;;;;;;-145.18;100.00;47121.41;4917427;29;20039;-70
2022/09/05 07:53:52;;;;;;;10.40;5.20;;;;;;;-145.18;100.00;47097.97;4916766;29;20043;-70
2022/09/05 07:56:37;;;;;;;10.00;5.27;;;;;;;-145.18;100.00;47146.81;4913724;29;20287;-70
2022/09/05 07:59:07;;;;;;;11.23;5.15;;;;;;;-145.18;100.00;47117.50;4911582;29;20119;-70
2022/09/05 08:01:36;;;;;;;8.93;5.53;;;;;;;-145.18;100.00;47080.38;4914802;29;20058;-70
2022/09/05 08:04:01;;;;;;;9.10;5.00;;;;;;;-145.18;100.00;47062.81;4908896;29;20131;-70
2022/09/05 08:06:27;;;;;;;10.23;5.40;;;;;;;-145.18;100.00;47047.19;4916439;29;20123;-70
2022/09/05 08:08:58;;;;;;;9.40;4.43;;;;;;;-145.18;100.00;47076.47;4915674;29;20036;-70
2022/09/05 08:11:26;;;;;;;8.20;4.07;;;;;;;-145.18;100.00;47078.44;4915573;29;20036;-70
2022/09/05 08:14:00;;;;;;;11.13;4.03;;;;;;;-145.18;100.00;47084.28;4915839;29;20075;-70
2022/09/05 08:16:26;;;;;;;7.43;3.60;;;;;;;-145.18;100.00;47105.78;4901602;29;20429;-70
2022/09/05 08:19:13;;;;;;;10.90;4.27;;;;;;;-145.18;100.00;47096.00;4916200;29;20048;-70
2022/09/05 08:21:47;;;;;;;9.13;3.93;;;;;;;-145.18;100.00;47090.16;4916470;29;20028;-70
2022/09/05 08:24:25;;;;;;;10.13;3.77;;;;;;;-145.18;100.00;47096.00;4907685;29;20044;-70
2022/09/05 08:27:05;;;;;;;10.13;3.37;;;;;;;-145.18;100.00;47121.41;4916406;29;20036;-70
2022/09/05 08:29:33;;;;;;;7.37;4.10;;;;;;;-145.18;100.00;47070.63;4915561;29;20031;-70
2022/09/05 08:32:09;;;;;;;8.10;3.77;;;;;;;-145.18;100.00;47051.09;4916212;29;20036;-70
2022/09/05 08:34:37;;;;;;;;;;;;;;;-145.18;100.00;47043.28;4916096;29;20488;-70
2022/09/05 08:37:04;;;;;;;7.43;3.77;;;;;;;-145.18;100.00;47037.41;4916166;29;19915;-70
2022/09/05 08:39:32;;;;;;;8.23;3.60;;;;;;;-145.18;100.00;47029.59;4915505;29;20636;-70
2022/09/05 08:41:57;;;;;;;6.57;4.00;;;;;;;-145.18;100.00;47015.91;4916040;29;20096;-70
2022/09/05 08:44:34;;;;;;;9.30;3.83;;;;;;;-145.18;100.00;47008.09;4915050;29;20020;-70
2022/09/05 08:47:34;;;;;;;9.93;3.27;;;;;;;-145.18;100.00;47004.19;4911076;29;20035;-71
2022/09/05 08:50:21;;;;;;;5.97;2.87;;;;;;;-145.18;100.00;47006.16;4912272;29;20047;-70
2022/09/05 08:52:49;;;;;;;7.20;3.07;;;;;;;-145.18;100.00;46988.56;4915420;29;20067;-70
2022/09/05 08:55:41;;;;;;;8.80;3.10;;;;;;;-145.18;100.00;46990.53;4914685;29;20040;-70
2022/09/05 08:58:31;;;;;;;8.10;2.93;;;;;;;-145.18;100.00;46976.84;4908945;29;20079;-71
2022/09/05 09:01:32;;;;;;;6.47;2.53;;;;;;;-145.18;100.00;46982.72;4913920;29;20569;-70
2022/09/05 09:04:09;;;;;;;5.82;2.45;;;;;;;-145.18;100.00;46969.03;4912386;29;20099;-70
2022/09/05 09:06:54;;;;;;;10.23;2.75;;;;;;;-145.18;100.00;46978.81;4915280;29;20024;-70
2022/09/05 09:09:52;;;;;;;7.80;2.78;;;;;;;-145.18;100.00;46984.66;4914474;29;20032;-70
2022/09/05 09:12:23;;;;;;;7.70;2.58;;;;;;;-145.18;100.00;46974.91;4911156;29;20039;-70
2022/09/05 09:14:58;;;;;;;4.32;2.63;;;;;;;-145.18;100.00;46961.22;4914926;29;20024;-70
2022/09/05 09:17:25;;;;;;;4.63;2.60;;;;;;;-145.18;100.00;46951.44;4914169;29;20024;-71
2022/09/05 09:20:05;;;;;;;8.20;3.33;;;;;;;-145.18;100.00;46961.22;4914497;29;20042;-70
2022/09/05 09:23:09;;;;;;;9.23;2.80;;;;;;;-145.18;100.00;46941.69;4900864;29;20040;-71
2022/09/05 09:25:44;;;;;;;6.32;2.75;;;;;;;-145.18;100.00;46959.25;4914696;29;20040;-70
2022/09/05 09:28:37;;;;;;;11.63;3.00;;;;;;;-145.18;100.00;46941.69;4914858;29;20036;-70
2022/09/05 09:31:27;;;;;;;4.90;2.63;;;;;;;-145.18;100.00;46943.63;4914676;29;20039;-71
2022/09/05 09:34:01;;;;;;;4.28;2.25;;;;;;;-145.18;100.00;46947.53;4914548;29;20032;-70
2022/09/05 09:36:44;;;;;;;13.02;2.80;;;;;;;-145.18;100.00;46945.59;4899562;29;20025;-70
2022/09/05 09:39:36;;;;;;;5.80;2.28;;;;;;;-145.18;100.00;46941.69;4914482;29;20036;-70
2022/09/05 09:42:50;;;;;;;12.85;2.65;;;;;;;-145.18;100.00;46926.06;4914640;29;20099;-71
2022/09/05 09:45:18;;;;;;;5.95;2.00;;;;;;;-145.18;100.00;46928.00;4873957;29;20128;-71
2022/09/05 09:48:02;;;;;;;7.32;1.85;;;;;;;-145.18;100.00;46928.00;4874801;29;20423;-71
2022/09/05 09:50:57;;;;;;;7.63;2.20;;;;;;;-145.18;100.00;46918.25;4881642;29;20108;-71
2022/09/05 09:54:02;;;;;;;6.72;2.75;;;;;;;-145.18;100.00;46918.25;4906641;29;20119;-71
2022/09/05 09:57:26;;;;;;;7.68;2.00;;;;;;;-145.18;100.00;46914.34;4913838;29;20058;-71
2022/09/05 10:00:06;;;;;;;7.72;1.70;;;;;;;-145.18;96.07;46902.63;4879050;29;20085;-70
2022/09/05 10:03:01;;;;;;;5.50;1.95;;;;;;;-145.18;100.00;46904.56;4913925;29;20060;-71
2022/09/05 10:05:44;;;;;;;5.63;1.83;;;;;;;-145.18;92.10;46894.81;4914267;29;20035;-71
2022/09/05 10:08:18;;;;;;;5.00;2.00;;;;;;;-145.18;89.68;46894.81;4914687;29;20304;-71
2022/09/05 10:10:52;;;;;;;7.47;1.70;;;;;;;-145.18;91.20;46906.53;4914433;29;20059;-71
2022/09/05 10:13:48;;;;;;;5.13;1.97;;;;;;;-145.18;88.47;46883.09;4914215;29;20060;-71
2022/09/05 10:16:14;;;;;;;;;;;;;;;-145.18;84.21;46881.13;4913376;29;20531;-71
2022/09/05 10:18:55;;;;;;;3.25;1.98;;;;;;;-145.18;82.60;46865.50;4914242;29;19963;-71
2022/09/05 10:21:41;;;;;;;4.80;1.75;;;;;;;-145.18;78.81;46885.03;4914279;29;20509;-71
2022/09/05 10:24:25;;;;;;;4.85;1.90;;;;;;;-145.18;76.92;46877.22;4914028;29;20492;-71
2022/09/05 10:27:15;;;;;;;5.60;2.00;;;;;;;-145.18;76.63;46861.59;4914189;29;20123;-71
2022/09/05 10:29:45;;;;;;;4.93;1.58;;;;;;;-145.18;73.37;46865.50;4914043;29;20067;-71
2022/09/05 10:32:24;;;;;;;4.60;1.75;;;;;;;-145.18;70.23;46867.44;4910288;29;20036;-71
2022/09/05 10:35:05;;;;;;;4.78;1.60;;;;;;;-145.18;67.91;46863.53;4913641;29;20068;-71
2022/09/05 10:37:48;;;;;;;4.82;1.50;;;;;;;-145.18;70.50;46861.59;4904632;29;20486;-71
2022/09/05 10:40:20;;;;;;;2.85;1.52;;;;;;;-145.18;65.52;46867.44;4908159;29;20116;-71
2022/09/05 10:42:57;;;;;;;5.68;1.58;;;;;;;-145.18;67.17;46867.44;4904302;29;20028;-71
2022/09/05 10:45:57;;;;;;;4.07;1.52;;;;;;;-145.18;64.57;46851.81;4913756;29;20032;-71
2022/09/05 10:48:40;;;;;;;5.78;1.30;;;;;;;-145.18;63.64;46847.91;4917409;29;20441;-71
2022/09/05 10:51:28;;;;;;;2.35;1.60;;;;;;;-145.18;61.77;46845.97;4917773;29;20032;-70
2022/09/05 10:54:12;;;;;;;4.78;1.38;;;;;;;-145.18;61.76;46845.97;4917474;29;20031;-70
2022/09/05 10:56:55;;;;;;;4.22;1.40;;;;;;;-145.18;59.25;46859.63;4917780;29;20454;-70
2022/09/05 11:00:01;;;;;;;3.50;1.30;;;;;;;-145.18;61.09;46865.50;4916445;29;20052;-70
2022/09/05 11:02:27;;;;;;;4.97;1.20;;;;;;;-145.18;61.02;46855.72;4885254;29;20461;-70
2022/09/05 11:05:16;;;;;;;4.43;1.38;;;;;;;-145.18;57.13;46832.28;4916626;29;20047;-70
2022/09/05 11:08:00;;;;;;;2.20;1.20;;;;;;;-145.18;58.58;46832.28;4917834;29;20036;-70
2022/09/05 11:10:34;;;;;;;5.47;1.20;;;;;;;-145.18;55.05;46832.28;4917344;29;20416;-71
2022/09/05 11:13:09;;;;;;;3.17;1.00;;;;;;;-145.18;54.61;46842.06;4917313;29;20160;-70
2022/09/05 11:15:56;;;;;;;3.65;1.20;;;;;;;-145.18;56.42;46853.78;4912674;29;20063;-70
2022/09/05 11:18:53;;;;;;;5.13;1.35;;;;;;;-145.18;55.13;46826.44;4898663;29;20036;-70
2022/09/05 11:21:50;;;;;;;4.22;1.50;;;;;;;-145.18;55.79;46844.00;4896601;29;20431;-71
2022/09/05 11:24:34;;;;;;;2.47;1.20;;;;;;;-145.18;52.52;46842.06;4898171;29;20025;-71
2022/09/05 11:27:05;;;;;;;3.35;1.27;;;;;;;-145.18;52.27;46861.59;4898969;29;20032;-71
2022/09/05 11:29:49;;;;;;;7.25;1.77;;;;;;;-145.18;56.11;46875.28;4905725;29;20036;-71
2022/09/05 11:32:18;;;;;;;9.27;1.42;;;;;;;-145.18;57.25;46888.94;4917363;29;20032;-70
2022/09/05 11:35:02;;;;;;;3.63;1.58;;;;;;;-145.18;58.92;46875.28;4916741;29;20131;-71
2022/09/05 11:37:49;;;;;;;2.25;1.17;;;;;;;-145.18;58.77;46871.38;4913945;29;20048;-71
2022/09/05 11:40:22;;;;;;;5.10;1.20;;;;;;;-145.18;59.73;46879.19;4906863;29;20075;-70
2022/09/05 11:42:50;;;;;;;4.03;1.25;;;;;;;-145.18;56.15;46890.91;4917168;29;20254;-70
2022/09/05 11:45:47;;;;;;;4.18;1.30;;;;;;;-145.18;61.26;46890.91;4916648;29;20487;-71
2022/09/05 11:48:41;;;;;;;5.00;1.40;;;;;;;-145.18;63.97;46888.94;4916891;29;20032;-71
2022/09/05 11:51:31;;;;;;;6.30;1.52;;;;;;;-145.18;64.48;46894.81;4897879;29;20041;-70
2022/09/05 11:54:18;;;;;;;4.03;1.35;;;;;;;-145.18;61.87;46894.81;4896772;29;20028;-71
2022/09/05 11:57:09;;;;;;;5.28;1.73;;;;;;;-145.18;62.41;46885.03;4898151;29;20498;-71
2022/09/05 11:59:59;;;;;;;3.65;1.58;;;;;;;-145.18;63.91;46904.56;4900988;29;20028;-71
2022/09/05 12:02:56;;;;;;;5.55;1.48;;;;;;;-145.18;64.17;46894.81;4916146;29;20056;-71
2022/09/05 12:05:51;;;;;;;11.25;2.15;;;;;;;-145.18;65.04;46898.72;4915897;29;20127;-71
2022/09/05 12:08:28;;;;;;;6.88;1.60;;;;;;;-145.18;65.43;46890.91;4916603;29;20036;-71
2022/09/05 12:11:02;;;;;;;2.90;1.40;;;;;;;-145.18;62.71;46879.19;4915804;29;20044;-70
2022/09/05 12:13:34;;;;;;;1.88;1.20;;;;;;;-145.18;62.25;46887.00;4916558;29;20648;-70